Aérodrome :
LOGIN :

S'inscrire | Disclaimer

   EN    FR    IT 

 










Légende :    VFR   VFR Marginal   IFR   IFR Intensif   IFR Très Intensif
Visi : 
Plafond : 
>= 8 km
>= 3000ft
5 à 8 km
1000 à 3000 ft
1500m à 5 km
500 à 1000 ft
800 à 1500m
200 à 500 ft
< 800m
< 200 ft
Symboles :   Orages  Brouillard  Fortes neiges  Fortes précipitations  Vent > 20 kt
SIGMETs :   Divers  Orages  Givrage  Turbulence  Onde Orograph.  Cendres Volcan.







- Altitude de l'aérodrome : 138 ft
- Code IATA : BIO


LEBB - Bilbao

METARs EXPIRÉS :
  • 241430Z VRB01KT 9000 FEW009 BKN020 BKN026 20/18 Q1022 TEMPO 4000 -RADZ BKN014
  • 241400Z VRB01KT 6000 FEW010 BKN016 BKN020 19/18 Q1022 TEMPO 4000 -RADZ BKN014
  • 241330Z VRB01KT 2500 BR -DZ FEW008 BKN016 BKN020 19/19 Q1022 TEMPO 4000 -RADZ BKN014
  • 241315Z 28003KT 2500 BR -DZ FEW008 BKN016 BKN020 19/19 Q1022 TEMPO 4000 -RADZ BKN014
  • 241300Z 30003KT 270V330 5000 2400SW BR FEW010 BKN016 BKN020 19/19 Q1022 TEMPO 4000 -RADZ BKN014
  • 241230Z VRB01KT 9000 FEW012 BKN016 BKN022 20/19 Q1022 TEMPO 4000 -RADZ BKN014
  • 241213Z 00000KT 9000 FEW010 BKN017 BKN025 19/19 Q1022 REDZ TEMPO 4000 -RADZ BKN014
  • 241200Z 00000KT 5000 DZ FEW010 BKN015 BKN020 19/19 Q1022 REDZ TEMPO 2000 -RADZ BKN010
  • 241151Z 00000KT 4500 DZ FEW010 BKN013 BKN020 19/18 Q1022 REDZ TEMPO 2000 -RADZ BKN010

TAF AMD TAF LEBB
Valide du 23 à 18h jusqu'au 24 à 18h UTC


231851Z 2318/2418 32007KT 8000 SCT015 BKN020 TX23/2414Z TN17/2405Z
TEMPO 2319/2409 4000 DZ BR BKN012
PROB30
TEMPO 2320/2407 2500 -RADZ BKN008
Pas de NOTAMs connus pour ce terrain.



MET'MAP, la Météo Aéronautique d'un coup d'oeil ! - Copyright ORBIFLY Décembre 2007 - Disclaimer

ORBIFLY MET'MAP TEAM :

Programmation & Développement : Alexandra Zaïnal
Conception & Développement : Baudouin d'Aumeries
Co-Programmation & Développement : Marc-Olivier Méhu
Soutien technique & logistique : Manuel Goepfert

Contact : metmap@orbifly.com




SOURCES & CREDITS :

   NOAA